INFORMACIÓN METAR y TAF
METAR FOR LEMH
ADDS - METARS form results

(1929 UTC 15 December 2019)
Data provider http://aviationweather.gov/metar/data/
 
METAR text: LEMH 151900Z 23007KT 200V260 CAVOK 13/11 Q1015
Conditions at: LEMH (MAHON/MENORCA IS, ES) observed 1900 UTC 15 December 2019
Temperature: 13.0°C (55°F)
Dewpoint: 11.0°C (52°F) [RH = 88%]
Pressure (altimeter): 29.97 inches Hg (1015.0 mb)
Winds: from the SW (230 degrees) at 8 MPH (7 knots; 3.6 m/s)
Visibility: 6 or more miles (10+ km)
Ceiling: ceiling and visibility are OK
Clouds: unknown
Weather: no significant weather observed at this time

METAR text: LEMH 151830Z 22007KT 190V250 CAVOK 13/10 Q1015
Conditions at: LEMH (MAHON/MENORCA IS, ES) observed 1830 UTC 15 December 2019
Temperature: 13.0°C (55°F)
Dewpoint: 10.0°C (50°F) [RH = 82%]
Pressure (altimeter): 29.97 inches Hg (1015.0 mb)
Winds: from the SW (220 degrees) at 8 MPH (7 knots; 3.6 m/s)
Visibility: 6 or more miles (10+ km)
Ceiling: ceiling and visibility are OK
Clouds: unknown
Weather: no significant weather observed at this time

Forecast for: LEMH (MAHON/MENORCA IS, ES)
Text: TAF LEMH 151400Z 1515/1615 25010KT 9999 FEW020 TX19/1612Z TN12/1606Z
Forecast period: 1500 to 1800 UTC 15 December 2019
Forecast type: FROM: standard forecast or significant change
Winds: from the WSW (250 degrees) at 12 MPH (10 knots; 5.1 m/s)
Visibility: 6 or more miles 10+ km)
Ceiling: at least 12,000 feet AGL
Clouds: few clouds at 2000 feet AGL
Weather: no significant weather forecast for this period
Text: BECMG 1518/1520 20010KT
Forecast period: 1800 UTC 15 December 2019 to 1500 UTC 16 December 2019
Forecast type: BECOMING: Conditions expected to become as follows by 2000 UTC 15 December 2019
Winds: from the SSW (200 degrees) at 12 MPH (10 knots; 5.1 m/s)
Visibility: 6 or more miles 10+ km)
Ceiling: at least 12,000 feet AGL
Clouds: few clouds at 2000 feet AGL
Weather: no significant weather forecast for this period
Text: PROB40
Forecast period: 0000 to 0800 UTC 16 December 2019
Forecast type: TEMPORARY: The following changes expected for less than half the time period
Visibility: 1.86 miles (2.99 km)
Ceiling: 900 feet AGL
Clouds: broken clouds at 900 feet AGL
Weather: BR  (mist)

 MAPA DE AEROPUERTO

 INFORMACIÓN DE PISTA
Pista 01L Longitud 7710 ft Ancho 148 ft
Elevación 277 ft Umbral desplazado 0 ft Rumbo de pista 9
Pista 19R Longitud 7710 ft Ancho 148 ft
Elevación 298 ft Umbral desplazado 0 ft Rumbo de pista 189
Pista 01R Longitud 6890 ft Ancho 148 ft
Elevación 272 ft Umbral desplazado 0 ft Rumbo de pista 9
Pista 19L Longitud 6890 ft Ancho 148 ft
Elevación 298 ft Umbral desplazado 0 ft Rumbo de pista 189

 FRECUANCIAS DEL AEROPUERTO
Tipo APP Nombre APP Frecuencia 119.65 MHZ
Tipo ATIS Nombre ATIS Frecuencia 112.6 MHZ
Tipo GND Nombre GND Frecuencia 121.75 MHZ
Tipo TWR Nombre TWR Frecuencia 118.2 MHZ

 RADIO AYUDAS DEL AEROPUERTO
Tipo VOR-DME Nombre Menorca Frecuencia 112600 KHZ
Tipo NDB Nombre Menorca Frecuencia 344 KHZ